Volendam, Netherlands
Current Conditions -  °F | °C
As of 4:55 PM on Thursday 27 Nov 2014 (Local Time) from EHAM Reporting Station
Light Rain Light Rain  
Wind Chill: 41°   Ceiling: Unl
Heat Index: 46°   Visibility: 6mi
Dew Point: 43°   Wind: 12mph
Humidity: 87%   Direction: 110°ESE
Pressure: 29.71"   Gusts: NA
Location:  52.5°N, 5.07°E
Report Text: EHAM 271555Z 11010KT 9000 -RADZ FEW010 08/06 Q1006 TEMPO 6000-RADZ BKN009
Loading
Personal Weather Stations






























Interactive Weather Map New forecast layout! Learn more

10-Day Weather Forecast

Advertisements
Track Severe Weather on mobile